Time;durP1;ratioP1;P1;durP2;ratioP2;P2;SDS_P1;SDS_P2;PMS_P1;PMS_P2;Temp;Humidity;BMP_temperature;BMP_pressure;BME280_temperature;BME280_humidity;BME280_pressure;Samples;Min_cycle;Max_cycle;Signal;HPM_P1;HPM_P2
2022/08/14 00:01:08;;;;;;;14.95;12.60;;;;;;;22.46;69.30;99085.37;1751719;82;21236;-46
2022/08/14 00:03:35;;;;;;;16.62;13.20;;;;;;;22.46;69.28;99088.13;1751682;82;21022;-46
2022/08/14 00:06:02;;;;;;;15.05;12.33;;;;;;;22.47;69.17;99086.89;1751943;82;21292;-46
2022/08/14 00:08:30;;;;;;;15.20;12.60;;;;;;;22.46;68.99;99082.61;1751355;82;20918;-46
2022/08/14 00:10:57;;;;;;;14.70;12.45;;;;;;;22.45;68.97;99079.67;1751548;82;21554;-46
2022/08/14 00:13:29;;;;;;;15.58;12.23;;;;;;;22.45;68.83;99075.53;1751156;82;23222;-46
2022/08/14 00:15:57;;;;;;;14.10;12.55;;;;;;;22.45;68.64;99071.38;1751286;82;21018;-46
2022/08/14 00:18:26;;;;;;;18.23;12.33;;;;;;;22.46;68.52;99077.08;1751477;82;20961;-46
2022/08/14 00:20:54;;;;;;;18.73;13.05;;;;;;;22.45;68.31;99075.53;1751328;82;20989;-46
2022/08/14 00:23:21;;;;;;;16.02;12.60;;;;;;;22.45;68.09;99074.14;1751478;82;20965;-46
2022/08/14 00:25:51;;;;;;;14.65;12.07;;;;;;;22.44;68.01;99069.23;1751104;82;23164;-46
2022/08/14 00:28:18;;;;;;;;;;;;;;;22.43;67.95;99066.91;1754168;82;20961;-46
2022/08/14 00:30:46;;;;;;;15.43;12.03;;;;;;;22.43;67.83;99072.42;1751410;82;20296;-46
2022/08/14 00:33:13;;;;;;;14.90;11.88;;;;;;;22.32;68.05;99070.63;1751322;82;20965;-46
2022/08/14 00:35:40;;;;;;;15.78;12.37;;;;;;;22.34;67.97;99067.59;1751434;82;21005;-46
2022/08/14 00:38:07;;;;;;;18.15;12.28;;;;;;;22.35;67.90;99069.75;1751560;82;21211;-46
2022/08/14 00:40:35;;;;;;;15.08;11.48;;;;;;;22.34;67.79;99066.21;1747151;82;21045;-46
2022/08/14 00:43:02;;;;;;;16.23;11.55;;;;;;;22.35;67.70;99066.98;1743445;81;21073;-46
2022/08/14 00:45:30;;;;;;;19.10;11.73;;;;;;;22.35;67.56;99068.37;1744000;82;20931;-46
2022/08/14 00:47:57;;;;;;;14.18;11.75;;;;;;;22.33;67.60;99068.80;1743329;82;21108;-46
2022/08/14 00:50:24;;;;;;;15.63;11.68;;;;;;;22.33;67.56;99062.51;1743378;81;23140;-46
2022/08/14 00:52:51;;;;;;;15.48;11.83;;;;;;;22.32;67.50;99059.58;1743337;82;21093;-46
2022/08/14 00:55:19;;;;;;;14.15;10.90;;;;;;;22.30;67.47;99067.55;1743502;82;21010;-46
2022/08/14 00:58:29;;;;;;;14.98;11.80;;;;;;;22.29;67.44;99062.63;1743526;81;21555;-46
2022/08/14 01:00:15;;;;;;;15.83;11.40;;;;;;;22.29;67.38;99064.62;1745586;81;21547;-46
2022/08/14 01:02:43;;;;;;;13.60;11.50;;;;;;;22.28;67.33;99063.07;1743363;82;21131;-46
2022/08/14 01:05:22;;;;;;;15.80;11.25;;;;;;;22.25;67.42;99063.36;1743248;82;20954;-46
2022/08/14 01:07:40;;;;;;;15.65;11.15;;;;;;;22.24;67.45;99063.20;1744262;81;20990;-46
2022/08/14 01:10:09;;;;;;;14.43;11.15;;;;;;;22.21;67.46;99055.03;1743243;81;21005;-46
2022/08/14 01:12:36;;;;;;;15.72;11.80;;;;;;;22.20;67.51;99067.30;1731768;81;21073;-46
2022/08/14 01:15:04;;;;;;;17.55;11.55;;;;;;;22.19;67.49;99069.28;1707509;82;22060;-46
2022/08/14 01:23:04;;;;;;;14.60;10.75;;;;;;;22.12;67.59;99072.28;1743580;82;20999;-46
2022/08/14 01:25:31;;;;;;;15.43;10.82;;;;;;;22.08;67.69;99064.09;1709146;82;21069;-46
2022/08/14 01:28:00;;;;;;;16.60;11.38;;;;;;;22.07;67.72;99068.07;1743222;81;20985;-46
2022/08/14 01:30:27;;;;;;;13.38;11.10;;;;;;;22.05;67.73;99073.88;1743416;82;20954;-46
2022/08/14 01:32:54;;;;;;;13.68;11.55;;;;;;;22.04;67.75;99073.11;1743330;81;20966;-46
2022/08/14 01:35:21;;;;;;;16.23;10.85;;;;;;;22.04;67.64;99070.95;1743241;82;21918;-46
2022/08/14 01:37:48;;;;;;;13.68;11.33;;;;;;;22.03;67.61;99068.80;1743635;82;21069;-46
2022/08/14 01:40:17;;;;;;;14.80;11.53;;;;;;;22.03;67.53;99074.32;1739313;81;22124;-47
2022/08/14 01:42:44;;;;;;;14.83;10.60;;;;;;;22.04;67.50;99072.33;1727830;83;20991;-46
2022/08/14 01:45:11;;;;;;;16.35;11.80;;;;;;;22.04;67.46;99073.72;1727980;83;20943;-46
2022/08/14 01:47:39;;;;;;;17.00;11.33;;;;;;;22.03;67.49;99068.80;1727951;83;21003;-46
2022/08/14 01:50:08;;;;;;;13.78;10.80;;;;;;;22.02;67.49;99070.64;1727986;83;21082;-46
2022/08/14 01:52:36;;;;;;;13.60;11.12;;;;;;;22.01;67.52;99074.61;1728130;83;21193;-46
2022/08/14 01:55:11;;;;;;;14.50;10.58;;;;;;;22.01;67.52;99070.47;1728164;83;20950;-46
2022/08/14 01:57:37;;;;;;;13.53;10.55;;;;;;;22.00;67.49;99063.40;1727788;82;21042;-46
2022/08/14 02:00:15;;;;;;;12.30;10.65;;;;;;;21.97;67.47;99063.69;1727966;83;21070;-46
2022/08/14 02:02:38;;;;;;;14.58;10.90;;;;;;;21.96;67.47;99064.91;1727589;82;21195;-46
2022/08/14 02:05:06;;;;;;;14.93;12.18;;;;;;;21.95;67.40;99066.11;1684816;83;21259;-46
2022/08/14 02:07:35;;;;;;;14.47;11.18;;;;;;;21.93;67.35;99060.85;1670618;85;21015;-46
2022/08/14 02:10:03;;;;;;;14.67;11.30;;;;;;;21.91;67.35;99059.91;1670670;85;22071;-46
2022/08/14 02:12:31;;;;;;;19.35;11.70;;;;;;;21.91;67.35;99059.91;1670732;85;21059;-46
2022/08/14 02:14:59;;;;;;;13.88;11.57;;;;;;;21.90;67.34;99063.09;1670540;85;21083;-46
2022/08/14 02:17:27;;;;;;;14.33;11.53;;;;;;;21.88;67.31;99063.53;1670863;85;21241;-46
2022/08/14 02:19:54;;;;;;;14.20;10.90;;;;;;;21.87;67.28;99063.99;1670678;85;21708;-46
2022/08/14 02:22:21;;;;;;;15.75;11.60;;;;;;;21.83;67.21;99059.97;1670688;85;21030;-46
2022/08/14 02:24:48;;;;;;;14.23;10.88;;;;;;;21.82;67.22;99060.41;1670517;85;21008;-46
2022/08/14 02:27:17;;;;;;;14.87;11.45;;;;;;;21.80;67.21;99055.32;1670672;85;21063;-46
2022/08/14 02:29:43;;;;;;;18.45;11.48;;;;;;;21.79;67.32;99054.38;1670601;85;21156;-46
2022/08/14 02:32:11;;;;;;;14.47;10.63;;;;;;;21.76;67.28;99051.13;1670658;85;21063;-46
2022/08/14 02:34:38;;;;;;;14.55;10.85;;;;;;;21.73;67.31;99057.55;1670706;85;21047;-46
2022/08/14 02:37:08;;;;;;;14.33;10.85;;;;;;;21.69;67.31;99061.17;1670855;85;21055;-46
2022/08/14 02:39:40;;;;;;;15.53;11.33;;;;;;;21.67;67.31;99060.08;1670908;85;21039;-46
2022/08/14 02:42:11;;;;;;;14.60;10.63;;;;;;;21.65;67.31;99063.87;1709510;82;21963;-46
2022/08/14 02:44:41;;;;;;;14.30;10.40;;;;;;;21.63;67.35;99066.31;1713782;83;21364;-46
2022/08/14 02:47:08;;;;;;;17.98;11.08;;;;;;;21.62;67.37;99065.54;1713231;82;21020;-46
2022/08/14 02:49:36;;;;;;;14.45;10.55;;;;;;;21.62;67.34;99074.42;1713737;83;20906;-46
2022/08/14 02:52:06;;;;;;;15.83;10.95;;;;;;;21.62;67.27;99067.52;1713551;82;21086;-46
2022/08/14 02:55:52;;;;;;;13.40;11.00;;;;;;;21.67;67.07;99069.73;1797036;79;22773;-46
2022/08/14 02:58:22;;;;;;;13.60;11.03;;;;;;;21.58;67.13;99068.24;1757135;81;20968;-46
2022/08/14 03:00:48;;;;;;;16.07;11.03;;;;;;;21.58;67.11;99071.78;1757348;81;23184;-46
2022/08/14 03:03:16;;;;;;;11.75;10.55;;;;;;;21.58;67.05;99076.52;1757139;81;20914;-46
2022/08/14 03:05:43;;;;;;;16.00;10.28;;;;;;;21.57;66.99;99076.34;1757024;81;21026;-46
2022/08/14 03:08:13;;;;;;;16.23;10.85;;;;;;;21.56;66.95;99075.57;1757142;81;21020;-46
2022/08/14 03:10:39;;;;;;;13.60;10.95;;;;;;;21.57;66.89;99073.59;1757461;81;20926;-46
2022/08/14 03:13:06;;;;;;;14.50;10.60;;;;;;;21.56;66.83;99070.66;1757217;81;21216;-46
2022/08/14 03:15:50;;;;;;;13.65;10.50;;;;;;;21.56;66.78;99072.81;1757192;81;21530;-46
2022/08/14 03:18:15;;;;;;;18.23;10.85;;;;;;;21.57;66.79;99070.83;1757259;81;20922;-46
2022/08/14 03:20:42;;;;;;;18.70;11.18;;;;;;;21.56;66.70;99072.03;1756973;81;21432;-46
2022/08/14 03:23:09;;;;;;;13.72;10.25;;;;;;;21.58;66.67;99065.48;1757157;81;20961;-46
2022/08/14 03:25:36;;;;;;;13.35;10.93;;;;;;;21.58;66.58;99071.00;1757118;81;21231;-46
2022/08/14 03:28:05;;;;;;;12.23;10.18;;;;;;;21.60;66.45;99076.23;1757075;81;20937;-46
2022/08/14 03:30:33;;;;;;;12.53;10.32;;;;;;;21.60;66.42;99069.94;1757178;81;21500;-46
2022/08/14 03:33:01;;;;;;;14.15;11.05;;;;;;;21.61;66.42;99072.27;1756981;81;21363;-46
2022/08/14 03:35:29;;;;;;;14.33;10.13;;;;;;;21.62;66.27;99062.78;1757216;81;21565;-46
2022/08/14 03:38:09;;;;;;;16.97;10.55;;;;;;;21.66;66.12;99073.09;1757062;81;21233;-46
2022/08/14 03:40:39;;;;;;;13.83;10.45;;;;;;;21.67;66.05;99075.25;1755775;81;21016;-46
2022/08/14 03:43:06;;;;;;;11.18;10.00;;;;;;;21.69;65.94;99070.05;1757241;81;20957;-46
2022/08/14 03:45:34;;;;;;;14.30;10.65;;;;;;;21.71;65.87;99067.63;1757109;81;21040;-46
2022/08/14 03:48:14;;;;;;;12.95;10.32;;;;;;;21.74;65.89;99075.02;1757306;81;21025;-46
2022/08/14 03:50:43;;;;;;;16.40;9.85;;;;;;;21.79;65.82;99073.09;1757261;81;21207;-46
2022/08/14 03:53:12;;;;;;;13.15;9.45;;;;;;;21.81;65.71;99074.81;1757253;81;21084;-46
2022/08/14 03:55:40;;;;;;;11.57;9.33;;;;;;;21.85;65.57;99074.69;1752338;81;21012;-46
2022/08/14 03:58:07;;;;;;;13.70;9.95;;;;;;;21.88;65.53;99075.95;1752552;81;21088;-46
2022/08/14 04:00:36;;;;;;;15.58;9.78;;;;;;;21.91;65.25;99078.45;1757560;81;21531;-46
2022/08/14 04:03:07;;;;;;;12.45;9.80;;;;;;;21.93;65.15;99077.41;1757310;81;23100;-46
2022/08/14 04:05:37;;;;;;;12.18;9.68;;;;;;;21.96;65.11;99071.02;1757258;81;20953;-46
2022/08/14 04:08:07;;;;;;;11.30;9.55;;;;;;;22.00;65.01;99072.45;1757161;81;20985;-46
2022/08/14 04:10:34;;;;;;;13.83;9.73;;;;;;;22.03;64.87;99068.80;1751587;81;21543;-47
2022/08/14 04:13:01;;;;;;;12.55;9.43;;;;;;;22.04;64.71;99070.34;1756847;81;21081;-46
2022/08/14 04:15:28;;;;;;;12.70;9.50;;;;;;;22.07;64.72;99062.55;1756824;81;21200;-46
2022/08/14 04:17:57;;;;;;;16.32;9.65;;;;;;;22.09;64.75;99063.49;1751612;81;20977;-46
2022/08/14 04:20:24;;;;;;;15.98;9.75;;;;;;;22.16;64.77;99058.36;1756933;81;21012;-46
2022/08/14 04:22:52;;;;;;;13.98;9.98;;;;;;;22.21;64.67;99053.66;1756780;81;20894;-46
2022/08/14 04:25:19;;;;;;;15.72;9.53;;;;;;;22.26;64.57;99060.00;1751480;81;21060;-46
2022/08/14 04:27:46;;;;;;;13.83;9.23;;;;;;;22.32;64.47;99052.67;1756988;81;21242;-46
2022/08/14 04:30:13;;;;;;;15.10;9.90;;;;;;;22.37;64.46;99052.11;1756805;81;21524;-46
2022/08/14 04:32:41;;;;;;;11.22;9.58;;;;;;;22.42;64.34;99043.25;1756867;81;21018;-46
2022/08/14 04:35:09;;;;;;;14.90;9.93;;;;;;;22.46;64.07;99044.67;1756857;81;20957;-46
2022/08/14 04:43:49;;;;;;;14.53;9.70;;;;;;;22.58;63.97;99047.24;1756601;81;21019;-46
2022/08/14 04:45:39;;;;;;;15.13;8.68;;;;;;;22.63;63.52;99046.67;1733603;81;20921;-46
2022/08/14 04:48:11;;;;;;;10.72;9.13;;;;;;;22.64;63.48;99044.08;1756851;81;21570;-46
2022/08/14 04:50:42;;;;;;;11.40;8.85;;;;;;;22.68;63.55;99044.72;1756928;81;21029;-46
2022/08/14 04:53:11;;;;;;;14.00;9.00;;;;;;;22.71;63.56;99043.84;1756734;81;21195;-46
2022/08/14 04:55:41;;;;;;;12.10;9.30;;;;;;;22.75;63.29;99044.48;1748175;81;21001;-46
2022/08/14 04:58:09;;;;;;;;;;;;;;;22.79;63.15;99048.52;1746155;81;21754;-46
2022/08/14 05:00:38;;;;;;;11.78;9.08;;;;;;;22.82;63.06;99040.09;1743381;81;20113;-46
2022/08/14 05:03:06;;;;;;;11.88;8.95;;;;;;;22.77;63.00;99050.95;1743357;81;21472;-46
2022/08/14 05:05:33;;;;;;;13.43;8.85;;;;;;;22.81;62.81;99050.98;1743471;82;21115;-46
2022/08/14 05:08:07;;;;;;;14.65;8.60;;;;;;;22.84;62.58;99056.23;1743479;82;20955;-46
2022/08/14 05:10:38;;;;;;;13.55;8.48;;;;;;;22.86;62.48;99055.94;1743483;81;20969;-46
2022/08/14 05:13:05;;;;;;;11.38;8.35;;;;;;;22.87;62.24;99054.72;1743363;81;20962;-46
2022/08/14 05:15:35;;;;;;;14.07;9.18;;;;;;;22.89;62.02;99052.90;1743532;81;21009;-46
2022/08/14 05:18:11;;;;;;;15.23;8.38;;;;;;;22.91;62.04;99056.74;1743797;82;26537;-46
2022/08/14 05:20:44;;;;;;;12.00;8.35;;;;;;;22.94;61.65;99058.63;1743439;82;21084;-46
2022/08/14 05:23:15;;;;;;;11.68;8.13;;;;;;;22.95;61.44;99054.62;1743570;81;21162;-47
2022/08/14 05:25:42;;;;;;;11.08;8.18;;;;;;;22.98;61.43;99064.63;1743393;81;21532;-47
2022/08/14 05:28:18;;;;;;;11.73;8.53;;;;;;;23.02;61.42;99061.12;1743548;81;21021;-46
2022/08/14 05:30:45;;;;;;;9.53;8.43;;;;;;;23.05;61.44;99060.20;1743516;81;21252;-47
2022/08/14 05:33:17;;;;;;;12.98;8.43;;;;;;;23.09;61.27;99058.85;1743640;82;21457;-47
2022/08/14 05:35:45;;;;;;;10.60;8.18;;;;;;;23.10;60.90;99059.02;1743588;82;20970;-47
2022/08/14 05:38:13;;;;;;;12.07;8.58;;;;;;;23.09;60.96;99060.88;1743632;82;20894;-47
2022/08/14 05:40:40;;;;;;;12.18;8.55;;;;;;;23.09;60.80;99061.62;1743959;81;21573;-47
2022/08/14 05:43:08;;;;;;;12.15;8.30;;;;;;;23.10;61.03;99064.55;1743601;81;21126;-47
2022/08/14 05:45:35;;;;;;;11.18;7.90;;;;;;;23.12;61.07;99062.12;1743564;82;20997;-47
2022/08/14 05:48:04;;;;;;;11.08;8.20;;;;;;;23.14;60.84;99061.67;1743997;82;21017;-47
2022/08/14 05:50:31;;;;;;;10.65;8.60;;;;;;;23.14;60.74;99058.91;1743517;81;21005;-47
2022/08/14 05:52:58;;;;;;;9.95;8.08;;;;;;;23.16;60.71;99053.68;1743507;81;21029;-47
2022/08/14 05:55:25;;;;;;;10.05;8.05;;;;;;;23.19;60.50;99059.07;1749032;81;21234;-47
2022/08/14 05:57:59;;;;;;;13.22;8.18;;;;;;;23.22;60.48;99051.88;1756595;81;20977;-47
2022/08/14 06:00:29;;;;;;;12.15;7.85;;;;;;;23.26;60.66;99052.52;1756835;81;21041;-47
2022/08/14 06:02:58;;;;;;;;;;;;;;;23.31;60.57;99055.47;1759623;81;21030;-47
2022/08/14 06:05:25;;;;;;;8.83;7.87;;;;;;;23.36;60.62;99057.66;1756577;81;20160;-46
2022/08/14 06:07:52;;;;;;;12.07;7.75;;;;;;;23.33;60.60;99053.64;1756785;81;21510;-47
2022/08/14 06:10:20;;;;;;;8.30;7.42;;;;;;;23.42;60.23;99061.21;1756686;81;20969;-47
2022/08/14 06:12:46;;;;;;;10.23;8.13;;;;;;;23.49;60.26;99061.73;1756761;81;20957;-47
2022/08/14 06:15:14;;;;;;;13.22;8.00;;;;;;;23.56;59.97;99056.55;1756460;81;21613;-47
2022/08/14 06:17:50;;;;;;;9.05;8.00;;;;;;;23.60;60.03;99050.25;1756816;81;21041;-47
2022/08/14 06:20:17;;;;;;;10.53;7.87;;;;;;;23.65;59.80;99053.81;1756814;81;21227;-47
2022/08/14 06:22:45;;;;;;;12.65;8.05;;;;;;;23.66;59.48;99047.84;1756697;81;21020;-47
2022/08/14 06:25:14;;;;;;;11.00;8.00;;;;;;;23.71;59.58;99045.86;1756613;81;21079;-47
2022/08/14 06:27:43;;;;;;;9.18;7.78;;;;;;;23.77;59.34;99045.39;1756800;81;20953;-47
2022/08/14 06:30:22;;;;;;;8.63;7.70;;;;;;;23.82;59.32;99044.80;1757233;81;21543;-47
2022/08/14 06:32:49;;;;;;;12.80;7.87;;;;;;;23.89;59.28;99044.36;1756172;81;21242;-47
2022/08/14 06:35:19;;;;;;;9.23;7.80;;;;;;;23.94;59.12;99048.70;1756762;81;20993;-47
2022/08/14 06:37:52;;;;;;;12.25;7.62;;;;;;;24.02;59.01;99047.78;1756896;81;21538;-47
2022/08/14 06:40:23;;;;;;;12.55;7.95;;;;;;;24.10;58.57;99042.13;1756117;81;21084;-47
2022/08/14 06:42:49;;;;;;;12.73;7.80;;;;;;;24.17;58.35;99039.08;1757055;81;21467;-47
2022/08/14 06:45:17;;;;;;;11.15;8.10;;;;;;;24.27;58.31;99035.09;1756707;81;21137;-46
2022/08/14 06:47:45;;;;;;;9.85;7.55;;;;;;;24.37;57.29;99033.10;1756829;81;21035;-47
2022/08/14 06:50:15;;;;;;;9.00;7.45;;;;;;;24.44;57.69;99038.36;1757183;81;21001;-47
2022/08/14 06:52:43;;;;;;;11.73;7.95;;;;;;;24.52;57.14;99035.42;1755998;81;21508;-47
2022/08/14 06:55:11;;;;;;;10.15;8.03;;;;;;;24.60;56.87;99036.03;1754712;81;21046;-47
2022/08/14 06:57:44;;;;;;;10.70;8.00;;;;;;;24.67;56.78;99037.12;1743925;82;21519;-47
2022/08/14 07:00:16;;;;;;;11.55;7.47;;;;;;;24.75;56.71;99035.41;1742624;81;21040;-47
2022/08/14 07:05:47;;;;;;;8.93;7.83;;;;;;;24.92;56.11;99033.91;1743622;82;20973;-47
2022/08/14 07:08:21;;;;;;;11.00;7.65;;;;;;;25.00;55.68;99037.89;1743393;81;21029;-47
2022/08/14 07:10:50;;;;;;;9.93;8.18;;;;;;;25.05;55.31;99036.66;1743315;82;21242;-47
2022/08/14 07:13:17;;;;;;;11.73;7.97;;;;;;;25.09;55.61;99026.77;1743251;81;20954;-47
2022/08/14 07:15:49;;;;;;;10.60;7.97;;;;;;;25.09;55.18;99033.09;1743224;81;20993;-47
2022/08/14 07:18:26;;;;;;;13.03;7.90;;;;;;;25.08;55.33;99031.55;1743299;82;21561;-47
2022/08/14 07:20:53;;;;;;;11.15;8.35;;;;;;;25.08;55.62;99035.70;1743549;82;21038;-47
2022/08/14 07:23:24;;;;;;;9.83;8.50;;;;;;;25.09;55.69;99040.64;1743331;81;21285;-46
2022/08/14 07:25:55;;;;;;;9.43;8.40;;;;;;;25.10;55.52;99039.41;1743533;82;20958;-47
2022/08/14 07:28:30;;;;;;;12.23;8.93;;;;;;;25.10;55.52;99036.64;1738109;82;21485;-47
2022/08/14 07:30:58;;;;;;;8.98;8.08;;;;;;;25.10;55.78;99042.96;1743262;82;20953;-47
2022/08/14 07:33:28;;;;;;;10.75;8.13;;;;;;;25.14;55.74;99043.41;1743355;82;21583;-47
2022/08/14 07:35:55;;;;;;;;;;;;;;;25.18;55.60;99043.39;1745786;82;21215;-47
2022/08/14 07:38:23;;;;;;;10.18;7.92;;;;;;;25.23;55.42;99045.55;1743465;82;20140;-47
2022/08/14 07:40:50;;;;;;;11.97;8.13;;;;;;;25.19;55.81;99038.00;1743316;81;20931;-47
2022/08/14 07:43:18;;;;;;;9.73;8.33;;;;;;;25.29;55.40;99039.52;1743952;82;21055;-47
2022/08/14 07:45:45;;;;;;;10.15;7.67;;;;;;;25.39;55.32;99048.59;1743532;81;21034;-47
2022/08/14 07:48:12;;;;;;;10.08;8.98;;;;;;;25.48;55.17;99053.49;1743360;82;23176;-47
2022/08/14 07:50:39;;;;;;;9.30;8.33;;;;;;;25.59;54.65;99049.48;1743430;81;21005;-47
2022/08/14 07:53:06;;;;;;;11.83;8.55;;;;;;;25.64;54.47;99048.84;1743619;81;20965;-47
2022/08/14 07:55:33;;;;;;;12.70;8.18;;;;;;;25.64;54.10;99057.17;1742965;82;21065;-47
2022/08/14 07:58:00;;;;;;;9.58;8.13;;;;;;;25.65;53.87;99054.55;1743386;81;21010;-47
2022/08/14 08:00:28;;;;;;;9.45;8.00;;;;;;;25.60;54.38;99064.91;1743953;82;21314;-47
2022/08/14 08:02:55;;;;;;;9.00;8.03;;;;;;;25.59;54.27;99071.08;1707646;83;20957;-47
2022/08/14 08:05:23;;;;;;;11.73;8.85;;;;;;;25.58;54.61;99068.75;1743716;82;21017;-47
2022/08/14 08:07:52;;;;;;;10.23;8.18;;;;;;;25.60;54.80;99064.91;1708020;84;21002;-47
2022/08/14 08:10:32;;;;;;;9.93;8.13;;;;;;;25.59;55.03;99071.69;1708095;84;21048;-47
2022/08/14 08:13:06;;;;;;;9.25;8.23;;;;;;;25.61;54.93;99074.78;1707894;84;21323;-47
2022/08/14 08:15:37;;;;;;;11.38;8.80;;;;;;;25.62;54.78;99072.13;1707466;82;21534;-47
2022/08/14 08:18:05;;;;;;;10.25;8.83;;;;;;;25.62;54.98;99072.91;1682169;85;21559;-47
2022/08/14 08:20:38;;;;;;;9.88;8.28;;;;;;;25.67;54.82;99068.10;1700181;84;21085;-47
2022/08/14 08:23:05;;;;;;;13.58;9.05;;;;;;;25.70;54.83;99072.73;1694858;84;21108;-47
2022/08/14 08:25:36;;;;;;;9.40;8.40;;;;;;;25.76;54.37;99072.84;1695220;84;21777;-47
2022/08/14 08:28:17;;;;;;;;;;;;;;;25.80;54.59;99067.27;1697479;84;21041;-47
2022/08/14 08:30:51;;;;;;;9.30;7.53;;;;;;;25.90;54.62;99061.08;1694281;84;20464;-47
2022/08/14 08:33:19;;;;;;;9.78;8.20;;;;;;;25.96;54.90;99071.68;1695075;84;21112;-47
2022/08/14 08:35:47;;;;;;;9.40;8.40;;;;;;;26.18;54.26;99068.64;1695291;84;21128;-47
2022/08/14 08:38:17;;;;;;;10.32;7.70;;;;;;;26.39;53.11;99074.54;1695030;84;21136;-47
2022/08/14 08:40:45;;;;;;;;;;;;;;;26.56;53.24;99076.29;1697412;84;21492;-47
2022/08/14 08:43:29;;;;;;;8.85;7.95;;;;;;;26.72;52.42;99070.30;1695352;84;20249;-47
2022/08/14 08:46:03;;;;;;;9.75;7.75;;;;;;;26.75;51.88;99074.91;1694355;84;21068;-47
2022/08/14 08:48:56;;;;;;;10.32;7.92;;;;;;;26.80;51.77;99065.91;1695057;84;21048;-47
2022/08/14 08:51:29;;;;;;;9.45;8.43;;;;;;;26.85;52.40;99065.23;1695130;84;21234;-47
2022/08/14 08:54:04;;;;;;;11.28;8.53;;;;;;;26.94;52.20;99068.59;1694868;84;21048;-47
2022/08/14 08:56:48;;;;;;;9.00;8.05;;;;;;;26.93;52.07;99058.08;1704563;83;21030;-47
2022/08/14 08:59:26;;;;;;;9.68;7.97;;;;;;;26.92;52.10;99060.70;1720819;83;21514;-47
2022/08/14 09:02:00;;;;;;;8.68;7.78;;;;;;;26.92;52.53;99061.33;1716960;83;21080;-47
2022/08/14 09:04:29;;;;;;;9.83;7.75;;;;;;;26.95;52.19;99052.82;1720347;83;21162;-47
2022/08/14 09:06:56;;;;;;;9.58;8.28;;;;;;;27.03;52.76;99049.80;1692070;84;20974;-47
2022/08/14 09:09:28;;;;;;;11.43;8.83;;;;;;;27.15;52.22;99043.20;1692119;84;20995;-47
2022/08/14 09:11:57;;;;;;;8.40;7.42;;;;;;;27.30;52.05;99050.77;1691187;84;21661;-47
2022/08/14 09:14:28;;;;;;;8.68;7.75;;;;;;;27.45;52.16;99048.10;1692326;84;21016;-47
2022/08/14 09:16:56;;;;;;;9.08;8.20;;;;;;;27.60;51.34;99048.89;1691955;84;21123;-47
2022/08/14 09:19:23;;;;;;;10.23;7.97;;;;;;;27.72;51.40;99042.10;1692170;84;21561;-47
2022/08/14 09:21:52;;;;;;;11.43;7.75;;;;;;;27.79;50.46;99039.67;1691953;84;21066;-47
2022/08/14 09:24:20;;;;;;;9.05;8.15;;;;;;;27.86;50.34;99042.07;1691777;84;21534;-47
2022/08/14 09:26:47;;;;;;;12.45;7.92;;;;;;;27.92;50.34;99037.35;1691718;84;21031;-47
2022/08/14 09:29:15;;;;;;;9.43;7.67;;;;;;;28.05;50.37;99032.20;1691810;84;21191;-47
2022/08/14 09:31:46;;;;;;;9.30;8.00;;;;;;;28.23;50.59;99023.45;1691836;84;20996;-47
2022/08/14 09:34:49;;;;;;;8.48;7.35;;;;;;;28.37;49.62;99021.25;1692003;84;21097;-47
2022/08/14 09:37:38;;;;;;;12.13;7.75;;;;;;;28.46;49.08;99026.67;1691883;84;21297;-47
2022/08/14 09:40:46;;;;;;;11.33;7.55;;;;;;;28.45;49.21;99023.75;1692037;84;21018;-47
2022/08/14 09:43:59;;;;;;;10.85;7.75;;;;;;;28.45;48.87;99027.92;1691844;84;21225;-47
2022/08/14 09:46:26;;;;;;;9.30;7.75;;;;;;;28.50;48.86;99031.41;1691825;84;20980;-47
2022/08/14 09:49:05;;;;;;;8.08;7.28;;;;;;;28.62;47.87;99013.53;1691676;84;21024;-47
2022/08/14 09:51:35;;;;;;;8.38;7.00;;;;;;;28.76;47.89;99012.70;1708763;84;21627;-47
2022/08/14 09:54:08;;;;;;;;;;;;;;;28.97;47.19;99011.26;1700075;84;21040;-47
2022/08/14 09:56:46;;;;;;;8.70;6.62;;;;;;;29.21;47.15;99011.11;1697839;83;21076;-47
2022/08/14 09:59:16;;;;;;;9.00;7.40;;;;;;;29.48;47.63;99005.65;1697810;84;21052;-47
2022/08/14 10:01:44;;;;;;;8.80;6.97;;;;;;;29.92;46.07;99000.24;1697798;84;21625;-47
2022/08/14 10:04:22;;;;;;;10.38;7.40;;;;;;;30.28;45.59;99004.21;1697653;84;21101;-47
2022/08/14 10:06:50;;;;;;;9.83;7.37;;;;;;;30.60;44.32;99000.02;1697831;84;21101;-47
2022/08/14 10:09:18;;;;;;;11.35;7.22;;;;;;;30.84;43.49;98998.19;1697768;84;21226;-47
2022/08/14 10:11:56;;;;;;;8.73;6.92;;;;;;;30.93;43.58;98999.34;1664604;84;21020;-47
2022/08/14 10:14:25;;;;;;;8.73;7.00;;;;;;;31.02;43.98;98997.72;1637247;87;20992;-47
2022/08/14 10:16:55;;;;;;;12.43;7.20;;;;;;;31.13;43.18;98986.51;1609621;87;21008;-47
2022/08/14 10:19:24;;;;;;;7.25;6.55;;;;;;;31.24;42.70;98989.95;1637180;87;21048;-47
2022/08/14 10:22:09;;;;;;;7.57;6.87;;;;;;;31.31;42.56;98995.83;1637474;87;21866;-47
2022/08/14 10:24:40;;;;;;;7.62;6.22;;;;;;;31.40;41.33;98989.19;1636974;87;21624;-47
2022/08/14 10:27:17;;;;;;;7.53;6.00;;;;;;;31.39;40.87;98990.45;1637358;87;21107;-47
2022/08/14 10:29:49;;;;;;;7.85;6.28;;;;;;;31.39;40.59;98994.03;1637033;87;20988;-47
2022/08/14 10:32:17;;;;;;;9.00;6.20;;;;;;;31.48;41.44;99002.16;1641651;86;21541;-47
2022/08/14 10:34:45;;;;;;;9.00;6.55;;;;;;;31.69;40.79;99004.09;1664200;86;21308;-47
2022/08/14 10:37:15;;;;;;;8.60;6.33;;;;;;;31.93;40.86;99007.09;1636058;86;20957;-47
2022/08/14 10:39:45;;;;;;;7.12;6.12;;;;;;;32.18;40.17;99010.10;1664119;86;21017;-47
2022/08/14 10:42:13;;;;;;;12.75;7.12;;;;;;;32.38;39.60;99016.02;1664538;86;20989;-47
2022/08/14 10:44:46;;;;;;;7.55;6.08;;;;;;;32.53;38.43;99008.80;1664406;86;21821;-47
2022/08/14 10:47:12;;;;;;;7.35;6.55;;;;;;;32.58;38.77;99007.25;1664198;86;21907;-47
2022/08/14 10:49:47;;;;;;;7.37;6.60;;;;;;;32.61;38.55;99007.61;1664008;86;20905;-47
2022/08/14 10:52:15;;;;;;;8.20;6.65;;;;;;;32.54;38.65;99009.55;1663944;85;21040;-47
2022/08/14 10:54:44;;;;;;;7.90;6.30;;;;;;;32.47;38.80;99005.89;1663186;86;21487;-47
2022/08/14 10:57:20;;;;;;;10.05;6.70;;;;;;;32.37;38.96;99008.23;1689164;83;21057;-47
2022/08/14 10:59:55;;;;;;;9.05;6.50;;;;;;;32.26;39.04;99011.84;1720654;83;21293;-47
2022/08/14 11:02:35;;;;;;;10.25;6.20;;;;;;;32.15;39.24;99007.67;1720586;83;20953;-47
2022/08/14 11:05:14;;;;;;;7.30;6.50;;;;;;;32.07;39.31;99001.69;1720524;83;21032;-47
2022/08/14 11:07:54;;;;;;;10.03;6.35;;;;;;;32.04;39.70;99006.94;1720670;83;21590;-47
2022/08/14 11:10:26;;;;;;;10.68;6.35;;;;;;;32.14;40.00;99002.59;1718994;83;21045;-47
2022/08/14 11:12:56;;;;;;;11.30;6.60;;;;;;;32.30;39.36;99008.77;1718221;83;21244;-47
2022/08/14 11:15:30;;;;;;;10.90;6.20;;;;;;;32.51;38.79;98997.96;1720353;83;21061;-47
2022/08/14 11:17:55;;;;;;;8.30;6.30;;;;;;;32.78;38.89;99001.27;1719946;83;21607;-47
2022/08/14 11:20:24;;;;;;;8.48;5.67;;;;;;;33.11;37.76;98998.22;1720965;83;21504;-47
2022/08/14 11:22:54;;;;;;;7.15;5.25;;;;;;;33.46;36.90;98991.06;1721306;83;21036;-47
2022/08/14 11:25:22;;;;;;;7.30;5.30;;;;;;;33.80;35.98;98999.31;1721057;83;21900;-47
2022/08/14 11:27:53;;;;;;;8.78;5.55;;;;;;;34.16;35.63;98986.52;1721224;83;20980;-47
2022/08/14 11:30:23;;;;;;;7.70;5.85;;;;;;;34.48;35.12;98991.62;1720863;83;21104;-47
2022/08/14 11:32:51;;;;;;;10.48;5.50;;;;;;;34.76;34.46;98986.38;1720929;83;20946;-47
2022/08/14 11:35:25;;;;;;;6.72;5.75;;;;;;;34.93;34.20;98992.42;1720817;83;21104;-47
2022/08/14 11:37:58;;;;;;;9.48;5.47;;;;;;;35.10;33.93;98991.52;1720365;83;21250;-47
2022/08/14 11:40:33;;;;;;;9.65;5.33;;;;;;;35.36;34.18;98993.02;1720359;83;21613;-47
2022/08/14 11:43:05;;;;;;;8.85;5.55;;;;;;;35.66;33.61;98994.95;1720564;83;21029;-47
2022/08/14 11:45:35;;;;;;;7.60;5.25;;;;;;;35.93;32.35;98989.30;1720501;83;21701;-47
2022/08/14 11:48:18;;;;;;;6.55;4.97;;;;;;;36.15;31.85;98986.08;1721005;83;21052;-47
2022/08/14 11:50:46;;;;;;;6.55;4.97;;;;;;;36.43;31.76;98986.90;1719520;83;23183;-47
2022/08/14 11:53:29;;;;;;;7.87;4.85;;;;;;;36.70;31.07;98979.16;1720814;83;20972;-47
2022/08/14 11:56:03;;;;;;;12.98;5.67;;;;;;;36.82;30.98;98984.64;1720659;83;20985;-47